createdAt,value
2022-10-30T00:00:01.033Z,0.00
2022-10-30T00:10:01.473Z,0.00
2022-10-30T00:20:01.273Z,0.00
2022-10-30T00:30:00.147Z,0.00
2022-10-30T00:40:01.085Z,0.00
2022-10-30T00:50:01.534Z,0.00
2022-10-30T01:00:00.170Z,0.00
2022-10-30T01:10:00.149Z,0.00
2022-10-30T01:30:00.149Z,0.00
2022-10-30T01:40:01.043Z,0.00
2022-10-30T01:50:01.064Z,0.00
2022-10-30T02:00:01.078Z,0.00
2022-10-30T02:10:01.232Z,0.00
2022-10-30T02:20:00.181Z,0.00
2022-10-30T02:30:01.000Z,0.00
2022-10-30T02:40:01.305Z,0.00
2022-10-30T02:50:01.035Z,0.00
2022-10-30T03:00:00.195Z,0.00
2022-10-30T03:10:00.140Z,0.00
2022-10-30T03:20:00.148Z,0.00
2022-10-30T03:30:02.337Z,0.00
2022-10-30T03:40:00.142Z,0.00
2022-10-30T03:50:01.826Z,0.00
2022-10-30T04:00:00.167Z,0.00
2022-10-30T04:10:01.257Z,0.00
2022-10-30T04:20:00.170Z,0.00
2022-10-30T04:30:01.339Z,0.00
2022-10-30T04:40:01.263Z,0.00
2022-10-30T04:50:00.139Z,0.00
2022-10-30T05:00:01.265Z,0.00
2022-10-30T05:10:00.150Z,0.00
2022-10-30T05:20:00.165Z,0.00
2022-10-30T05:30:01.291Z,0.45
2022-10-30T05:40:00.173Z,2.94
2022-10-30T05:50:00.144Z,17.92
2022-10-30T06:00:01.293Z,16.67
2022-10-30T06:10:01.974Z,115.83
2022-10-30T06:20:00.185Z,100.00
2022-10-30T06:30:00.176Z,429.58
2022-10-30T06:40:01.025Z,315.00
2022-10-30T06:50:00.161Z,862.92
2022-10-30T07:00:01.062Z,825.00
2022-10-30T07:10:00.126Z,908.33
2022-10-30T07:20:00.174Z,1238.33
2022-10-30T07:30:00.144Z,1546.67
2022-10-30T07:40:01.039Z,1815.00
2022-10-30T07:50:00.974Z,2142.92
2022-10-30T08:00:03.706Z,2585.00
2022-10-30T08:10:00.158Z,1780.00
2022-10-30T08:20:00.994Z,3009.17
2022-10-30T08:30:00.132Z,3777.92
2022-10-30T08:40:01.292Z,4176.25
2022-10-30T08:50:01.102Z,1650.00
2022-10-30T09:00:01.489Z,3215.83
2022-10-30T09:10:01.003Z,3476.67
2022-10-30T09:20:01.085Z,3362.08
2022-10-30T09:30:00.168Z,2898.75
2022-10-30T09:40:01.940Z,3080.00
2022-10-30T09:50:03.022Z,3320.42
2022-10-30T10:00:00.178Z,3639.17
2022-10-30T10:10:00.294Z,15806.67
2022-10-30T10:20:01.603Z,16619.58
2022-10-30T10:30:01.300Z,17127.08
2022-10-30T10:40:01.088Z,17584.17
2022-10-30T10:50:01.991Z,18120.83
2022-10-30T11:00:00.178Z,18501.25
2022-10-30T11:10:01.008Z,18814.17
2022-10-30T11:20:01.140Z,19153.75
2022-10-30T11:30:00.147Z,19301.25
2022-10-30T11:40:00.179Z,19288.33
2022-10-30T11:50:00.150Z,19236.25
2022-10-30T12:00:05.452Z,19210.42
2022-10-30T12:10:01.052Z,19098.75
2022-10-30T12:20:00.157Z,18986.67
2022-10-30T12:30:09.523Z,18629.17
2022-10-30T12:40:01.060Z,18326.25
2022-10-30T12:50:01.008Z,18060.00
2022-10-30T13:00:01.241Z,17373.75
2022-10-30T13:10:00.974Z,16780.83
2022-10-30T13:20:01.307Z,15794.17
2022-10-30T13:30:00.162Z,14874.58
2022-10-30T13:40:00.999Z,8715.00
2022-10-30T13:50:00.155Z,7984.58
2022-10-30T14:00:00.181Z,8630.00
2022-10-30T14:10:00.130Z,9393.75
2022-10-30T14:20:01.519Z,8978.33
2022-10-30T14:30:01.271Z,8000.00
2022-10-30T14:40:01.212Z,6409.17
2022-10-30T14:50:00.113Z,4032.08
2022-10-30T15:00:00.164Z,2316.25
2022-10-30T15:10:01.208Z,1793.75
2022-10-30T15:20:00.173Z,833.75
2022-10-30T15:30:00.156Z,400.42
2022-10-30T15:40:00.800Z,183.75
2022-10-30T15:50:00.104Z,68.75
2022-10-30T16:00:01.105Z,17.92
2022-10-30T16:10:00.134Z,2.72
2022-10-30T16:20:01.056Z,0.34
2022-10-30T16:30:01.269Z,0.00
2022-10-30T16:40:01.312Z,0.00
2022-10-30T16:50:01.274Z,0.00
2022-10-30T17:00:00.143Z,0.00
2022-10-30T17:10:01.279Z,0.00
2022-10-30T17:20:00.308Z,1.02
2022-10-30T17:30:01.084Z,0.00
2022-10-30T17:40:01.980Z,0.00
2022-10-30T17:50:00.153Z,0.00
2022-10-30T18:00:02.737Z,0.00
2022-10-30T18:10:01.606Z,0.00
2022-10-30T18:30:00.313Z,0.00
2022-10-30T18:40:01.070Z,0.00
2022-10-30T18:50:01.989Z,0.00
2022-10-30T19:00:01.302Z,1.13
2022-10-30T19:10:01.310Z,0.00
2022-10-30T19:20:00.179Z,0.00
2022-10-30T19:30:00.137Z,0.00
2022-10-30T19:40:01.031Z,0.00
2022-10-30T19:50:00.151Z,0.00
2022-10-30T20:00:01.570Z,0.00
2022-10-30T20:10:00.135Z,0.00
2022-10-30T20:20:00.152Z,0.00
2022-10-30T20:30:01.005Z,0.00
2022-10-30T20:40:01.011Z,0.00
2022-10-30T20:50:00.165Z,0.00
2022-10-30T21:00:00.166Z,0.00
2022-10-30T21:10:00.157Z,0.00
2022-10-30T21:20:00.189Z,0.00
2022-10-30T21:30:01.915Z,0.00
2022-10-30T21:40:00.157Z,0.00
2022-10-30T21:50:00.982Z,0.00
2022-10-30T22:00:03.359Z,0.00
2022-10-30T22:10:00.147Z,0.00
2022-10-30T22:20:00.168Z,0.00
2022-10-30T22:30:01.309Z,0.00
2022-10-30T22:40:01.213Z,0.00
2022-10-30T22:50:00.135Z,0.00
2022-10-30T23:00:04.818Z,0.00
2022-10-30T23:10:01.219Z,0.00
2022-10-30T23:20:01.337Z,0.00
2022-10-30T23:30:01.561Z,0.00
2022-10-30T23:40:00.142Z,0.00
2022-10-30T23:50:00.163Z,0.00
